sensor_id;sensor_type;location;lat;lon;timestamp;P1;durP1;ratioP1;P2;durP2;ratioP2
23242;SDS011;11790;49.578;11.214;2022-08-18T00:02:08;6.90;;;4.07;;
23242;SDS011;11790;49.578;11.214;2022-08-18T00:07:12;11.10;;;4.40;;
23242;SDS011;11790;49.578;11.214;2022-08-18T00:12:14;4.68;;;3.72;;
23242;SDS011;11790;49.578;11.214;2022-08-18T00:17:15;5.18;;;4.40;;
23242;SDS011;11790;49.578;11.214;2022-08-18T00:22:18;6.78;;;4.60;;
23242;SDS011;11790;49.578;11.214;2022-08-18T00:27:20;9.00;;;4.43;;
23242;SDS011;11790;49.578;11.214;2022-08-18T00:32:25;4.53;;;3.90;;
23242;SDS011;11790;49.578;11.214;2022-08-18T00:37:26;8.57;;;4.47;;
23242;SDS011;11790;49.578;11.214;2022-08-18T00:42:27;6.20;;;4.32;;
23242;SDS011;11790;49.578;11.214;2022-08-18T00:47:28;7.78;;;4.25;;
23242;SDS011;11790;49.578;11.214;2022-08-18T00:52:28;5.45;;;4.30;;
23242;SDS011;11790;49.578;11.214;2022-08-18T00:57:28;7.22;;;4.20;;
23242;SDS011;11790;49.578;11.214;2022-08-18T01:02:31;5.40;;;3.97;;
23242;SDS011;11790;49.578;11.214;2022-08-18T01:07:36;10.93;;;3.67;;
23242;SDS011;11790;49.578;11.214;2022-08-18T01:12:39;6.07;;;3.33;;
23242;SDS011;11790;49.578;11.214;2022-08-18T01:17:40;4.38;;;3.30;;
23242;SDS011;11790;49.578;11.214;2022-08-18T01:23:10;5.72;;;3.40;;
23242;SDS011;11790;49.578;11.214;2022-08-18T01:28:11;8.77;;;3.65;;
23242;SDS011;11790;49.578;11.214;2022-08-18T01:33:11;5.75;;;3.38;;
23242;SDS011;11790;49.578;11.214;2022-08-18T01:38:11;5.13;;;3.05;;
23242;SDS011;11790;49.578;11.214;2022-08-18T01:43:12;4.13;;;3.30;;
23242;SDS011;11790;49.578;11.214;2022-08-18T01:48:12;5.10;;;3.53;;
23242;SDS011;11790;49.578;11.214;2022-08-18T01:53:13;6.53;;;3.88;;
23242;SDS011;11790;49.578;11.214;2022-08-18T01:58:13;7.40;;;4.20;;
23242;SDS011;11790;49.578;11.214;2022-08-18T02:03:13;7.72;;;4.60;;
23242;SDS011;11790;49.578;11.214;2022-08-18T02:08:13;5.90;;;3.97;;
23242;SDS011;11790;49.578;11.214;2022-08-18T02:13:14;5.10;;;4.38;;
23242;SDS011;11790;49.578;11.214;2022-08-18T02:18:15;7.60;;;5.10;;
23242;SDS011;11790;49.578;11.214;2022-08-18T02:23:15;12.93;;;5.68;;
23242;SDS011;11790;49.578;11.214;2022-08-18T02:28:16;8.40;;;5.43;;
23242;SDS011;11790;49.578;11.214;2022-08-18T02:33:16;5.97;;;5.38;;
23242;SDS011;11790;49.578;11.214;2022-08-18T02:38:17;7.60;;;5.22;;
23242;SDS011;11790;49.578;11.214;2022-08-18T02:43:17;7.75;;;5.93;;
23242;SDS011;11790;49.578;11.214;2022-08-18T02:48:17;8.15;;;5.78;;
23242;SDS011;11790;49.578;11.214;2022-08-18T02:53:23;7.35;;;5.82;;
23242;SDS011;11790;49.578;11.214;2022-08-18T02:58:24;7.15;;;5.70;;
23242;SDS011;11790;49.578;11.214;2022-08-18T03:03:24;9.35;;;5.68;;
23242;SDS011;11790;49.578;11.214;2022-08-18T03:08:24;12.98;;;6.47;;
23242;SDS011;11790;49.578;11.214;2022-08-18T03:13:24;9.05;;;6.88;;
23242;SDS011;11790;49.578;11.214;2022-08-18T03:18:25;11.00;;;6.47;;
23242;SDS011;11790;49.578;11.214;2022-08-18T03:23:25;10.82;;;6.78;;
23242;SDS011;11790;49.578;11.214;2022-08-18T03:28:26;12.68;;;6.70;;
23242;SDS011;11790;49.578;11.214;2022-08-18T03:33:27;10.85;;;7.13;;
23242;SDS011;11790;49.578;11.214;2022-08-18T03:38:27;8.38;;;6.28;;
23242;SDS011;11790;49.578;11.214;2022-08-18T03:43:28;11.23;;;7.38;;
23242;SDS011;11790;49.578;11.214;2022-08-18T03:48:30;10.30;;;7.30;;
23242;SDS011;11790;49.578;11.214;2022-08-18T03:53:33;9.27;;;6.93;;
23242;SDS011;11790;49.578;11.214;2022-08-18T03:58:33;9.57;;;6.57;;
23242;SDS011;11790;49.578;11.214;2022-08-18T04:03:34;11.55;;;7.13;;
23242;SDS011;11790;49.578;11.214;2022-08-18T04:08:35;8.02;;;7.05;;
23242;SDS011;11790;49.578;11.214;2022-08-18T04:13:36;9.80;;;7.40;;
23242;SDS011;11790;49.578;11.214;2022-08-18T04:18:36;9.20;;;7.22;;
23242;SDS011;11790;49.578;11.214;2022-08-18T04:23:37;10.40;;;7.35;;
23242;SDS011;11790;49.578;11.214;2022-08-18T04:28:37;11.88;;;7.75;;
23242;SDS011;11790;49.578;11.214;2022-08-18T04:33:38;10.02;;;8.05;;
23242;SDS011;11790;49.578;11.214;2022-08-18T04:38:38;8.73;;;7.03;;
23242;SDS011;11790;49.578;11.214;2022-08-18T04:43:40;9.50;;;8.05;;
23242;SDS011;11790;49.578;11.214;2022-08-18T04:48:41;13.00;;;7.68;;
23242;SDS011;11790;49.578;11.214;2022-08-18T04:53:41;10.55;;;7.63;;
23242;SDS011;11790;49.578;11.214;2022-08-18T04:58:45;9.95;;;7.80;;
23242;SDS011;11790;49.578;11.214;2022-08-18T05:03:49;10.80;;;7.82;;
23242;SDS011;11790;49.578;11.214;2022-08-18T05:09:00;9.10;;;7.70;;
23242;SDS011;11790;49.578;11.214;2022-08-18T05:14:01;10.10;;;7.93;;
23242;SDS011;11790;49.578;11.214;2022-08-18T05:19:03;9.02;;;7.75;;
23242;SDS011;11790;49.578;11.214;2022-08-18T05:24:03;10.82;;;8.02;;
23242;SDS011;11790;49.578;11.214;2022-08-18T05:29:03;12.13;;;7.90;;
23242;SDS011;11790;49.578;11.214;2022-08-18T05:34:05;12.55;;;7.90;;
23242;SDS011;11790;49.578;11.214;2022-08-18T05:39:09;10.00;;;8.20;;
23242;SDS011;11790;49.578;11.214;2022-08-18T05:44:13;11.38;;;8.30;;
23242;SDS011;11790;49.578;11.214;2022-08-18T05:49:14;9.88;;;8.25;;
23242;SDS011;11790;49.578;11.214;2022-08-18T05:54:16;11.32;;;8.50;;
23242;SDS011;11790;49.578;11.214;2022-08-18T05:59:37;10.18;;;7.68;;
23242;SDS011;11790;49.578;11.214;2022-08-18T06:04:46;11.05;;;8.35;;
23242;SDS011;11790;49.578;11.214;2022-08-18T06:09:51;8.48;;;7.57;;
23242;SDS011;11790;49.578;11.214;2022-08-18T06:15:00;9.43;;;7.35;;
23242;SDS011;11790;49.578;11.214;2022-08-18T06:21:05;9.80;;;7.30;;
23242;SDS011;11790;49.578;11.214;2022-08-18T06:30:45;9.95;;;7.43;;
23242;SDS011;11790;49.578;11.214;2022-08-18T06:35:53;11.00;;;7.57;;
23242;SDS011;11790;49.578;11.214;2022-08-18T06:41:09;9.90;;;7.40;;
23242;SDS011;11790;49.578;11.214;2022-08-18T06:46:11;9.48;;;7.47;;
23242;SDS011;11790;49.578;11.214;2022-08-18T06:51:17;7.88;;;6.80;;
23242;SDS011;11790;49.578;11.214;2022-08-18T06:57:04;9.20;;;6.60;;
23242;SDS011;11790;49.578;11.214;2022-08-18T07:01:40;8.00;;;7.20;;
23242;SDS011;11790;49.578;11.214;2022-08-18T07:06:40;10.63;;;6.97;;
23242;SDS011;11790;49.578;11.214;2022-08-18T07:11:44;8.57;;;6.70;;
23242;SDS011;11790;49.578;11.214;2022-08-18T07:17:09;9.15;;;6.28;;
23242;SDS011;11790;49.578;11.214;2022-08-18T07:22:11;9.80;;;6.65;;
23242;SDS011;11790;49.578;11.214;2022-08-18T07:32:17;7.63;;;6.80;;
23242;SDS011;11790;49.578;11.214;2022-08-18T07:47:42;7.72;;;6.25;;
23242;SDS011;11790;49.578;11.214;2022-08-18T07:52:47;7.72;;;6.30;;
23242;SDS011;11790;49.578;11.214;2022-08-18T08:03:12;8.85;;;7.00;;
23242;SDS011;11790;49.578;11.214;2022-08-18T08:19:01;8.20;;;6.63;;
23242;SDS011;11790;49.578;11.214;2022-08-18T08:24:09;7.15;;;6.45;;
23242;SDS011;11790;49.578;11.214;2022-08-18T08:44:56;7.43;;;6.72;;
23242;SDS011;11790;49.578;11.214;2022-08-18T08:50:01;6.75;;;5.68;;
23242;SDS011;11790;49.578;11.214;2022-08-18T08:55:03;8.18;;;5.88;;
23242;SDS011;11790;49.578;11.214;2022-08-18T09:00:05;9.40;;;6.88;;
23242;SDS011;11790;49.578;11.214;2022-08-18T09:05:10;10.70;;;6.88;;
23242;SDS011;11790;49.578;11.214;2022-08-18T09:25:49;8.18;;;6.47;;
23242;SDS011;11790;49.578;11.214;2022-08-18T09:41:28;5.78;;;5.22;;
23242;SDS011;11790;49.578;11.214;2022-08-18T09:46:50;7.00;;;5.07;;
23242;SDS011;11790;49.578;11.214;2022-08-18T09:51:52;6.03;;;5.07;;
23242;SDS011;11790;49.578;11.214;2022-08-18T10:07:30;5.63;;;4.97;;
23242;SDS011;11790;49.578;11.214;2022-08-18T10:22:54;6.13;;;4.28;;
23242;SDS011;11790;49.578;11.214;2022-08-18T10:27:55;6.80;;;4.57;;
23242;SDS011;11790;49.578;11.214;2022-08-18T10:32:56;5.55;;;4.57;;
23242;SDS011;11790;49.578;11.214;2022-08-18T10:37:56;6.63;;;4.70;;
23242;SDS011;11790;49.578;11.214;2022-08-18T10:43:06;7.00;;;5.38;;
23242;SDS011;11790;49.578;11.214;2022-08-18T10:48:26;5.15;;;4.63;;
23242;SDS011;11790;49.578;11.214;2022-08-18T11:03:57;8.65;;;5.85;;
23242;SDS011;11790;49.578;11.214;2022-08-18T11:08:59;10.35;;;5.35;;
23242;SDS011;11790;49.578;11.214;2022-08-18T11:19:07;8.55;;;6.00;;
23242;SDS011;11790;49.578;11.214;2022-08-18T11:24:10;8.07;;;6.10;;
23242;SDS011;11790;49.578;11.214;2022-08-18T11:34:24;5.55;;;4.85;;
23242;SDS011;11790;49.578;11.214;2022-08-18T11:39:27;5.72;;;5.10;;
23242;SDS011;11790;49.578;11.214;2022-08-18T11:44:28;7.40;;;5.18;;
23242;SDS011;11790;49.578;11.214;2022-08-18T11:49:31;6.38;;;4.55;;
23242;SDS011;11790;49.578;11.214;2022-08-18T11:54:38;7.45;;;4.53;;
23242;SDS011;11790;49.578;11.214;2022-08-18T11:59:39;5.25;;;4.75;;
23242;SDS011;11790;49.578;11.214;2022-08-18T12:04:40;5.93;;;4.57;;
23242;SDS011;11790;49.578;11.214;2022-08-18T12:10:08;4.93;;;4.53;;
23242;SDS011;11790;49.578;11.214;2022-08-18T12:20:13;6.03;;;4.05;;
23242;SDS011;11790;49.578;11.214;2022-08-18T12:25:14;5.75;;;4.07;;
23242;SDS011;11790;49.578;11.214;2022-08-18T12:30:15;6.13;;;4.60;;
23242;SDS011;11790;49.578;11.214;2022-08-18T12:35:16;5.38;;;4.45;;
23242;SDS011;11790;49.578;11.214;2022-08-18T12:40:17;5.25;;;4.43;;
23242;SDS011;11790;49.578;11.214;2022-08-18T12:45:17;4.88;;;4.10;;
23242;SDS011;11790;49.578;11.214;2022-08-18T12:50:17;5.78;;;4.47;;
23242;SDS011;11790;49.578;11.214;2022-08-18T12:55:17;7.38;;;4.93;;
23242;SDS011;11790;49.578;11.214;2022-08-18T13:00:17;7.82;;;4.20;;
23242;SDS011;11790;49.578;11.214;2022-08-18T13:05:20;4.80;;;4.10;;
23242;SDS011;11790;49.578;11.214;2022-08-18T13:10:20;6.85;;;4.68;;
23242;SDS011;11790;49.578;11.214;2022-08-18T13:15:20;4.25;;;3.85;;
23242;SDS011;11790;49.578;11.214;2022-08-18T13:20:21;5.20;;;4.60;;
23242;SDS011;11790;49.578;11.214;2022-08-18T13:25:21;6.65;;;4.68;;
23242;SDS011;11790;49.578;11.214;2022-08-18T13:30:22;6.55;;;4.63;;
23242;SDS011;11790;49.578;11.214;2022-08-18T13:35:22;6.07;;;4.50;;
23242;SDS011;11790;49.578;11.214;2022-08-18T13:40:22;5.75;;;4.25;;
23242;SDS011;11790;49.578;11.214;2022-08-18T13:45:23;5.38;;;4.40;;
23242;SDS011;11790;49.578;11.214;2022-08-18T13:50:24;6.30;;;4.47;;
23242;SDS011;11790;49.578;11.214;2022-08-18T13:55:25;4.77;;;4.10;;
23242;SDS011;11790;49.578;11.214;2022-08-18T14:00:27;5.80;;;4.22;;
23242;SDS011;11790;49.578;11.214;2022-08-18T14:05:28;7.28;;;4.13;;
23242;SDS011;11790;49.578;11.214;2022-08-18T14:10:30;4.28;;;3.88;;
23242;SDS011;11790;49.578;11.214;2022-08-18T14:15:31;4.35;;;3.95;;
23242;SDS011;11790;49.578;11.214;2022-08-18T14:25:54;4.63;;;3.60;;
23242;SDS011;11790;49.578;11.214;2022-08-18T14:31:13;7.53;;;4.10;;
23242;SDS011;11790;49.578;11.214;2022-08-18T14:36:13;5.95;;;4.22;;
23242;SDS011;11790;49.578;11.214;2022-08-18T14:41:13;6.18;;;4.22;;
23242;SDS011;11790;49.578;11.214;2022-08-18T14:46:14;7.30;;;4.25;;
23242;SDS011;11790;49.578;11.214;2022-08-18T14:51:14;5.35;;;4.00;;
23242;SDS011;11790;49.578;11.214;2022-08-18T14:56:14;4.53;;;3.97;;
23242;SDS011;11790;49.578;11.214;2022-08-18T15:01:15;4.72;;;4.20;;
23242;SDS011;11790;49.578;11.214;2022-08-18T15:06:17;5.50;;;4.45;;
23242;SDS011;11790;49.578;11.214;2022-08-18T15:11:17;8.23;;;4.65;;
23242;SDS011;11790;49.578;11.214;2022-08-18T15:16:18;5.47;;;4.57;;
23242;SDS011;11790;49.578;11.214;2022-08-18T15:21:18;4.80;;;4.30;;
23242;SDS011;11790;49.578;11.214;2022-08-18T15:26:36;7.10;;;4.40;;
23242;SDS011;11790;49.578;11.214;2022-08-18T15:31:37;5.18;;;4.68;;
23242;SDS011;11790;49.578;11.214;2022-08-18T15:36:37;5.13;;;4.60;;
23242;SDS011;11790;49.578;11.214;2022-08-18T15:41:39;5.22;;;4.72;;
23242;SDS011;11790;49.578;11.214;2022-08-18T15:46:39;9.85;;;4.57;;
23242;SDS011;11790;49.578;11.214;2022-08-18T15:51:40;5.50;;;4.60;;
23242;SDS011;11790;49.578;11.214;2022-08-18T15:56:41;6.40;;;4.68;;
23242;SDS011;11790;49.578;11.214;2022-08-18T16:01:41;7.32;;;4.18;;
23242;SDS011;11790;49.578;11.214;2022-08-18T16:06:41;4.88;;;4.45;;
23242;SDS011;11790;49.578;11.214;2022-08-18T16:11:44;6.07;;;4.75;;
23242;SDS011;11790;49.578;11.214;2022-08-18T16:16:44;5.70;;;4.40;;
23242;SDS011;11790;49.578;11.214;2022-08-18T16:21:44;4.85;;;4.45;;
23242;SDS011;11790;49.578;11.214;2022-08-18T16:26:45;5.97;;;4.13;;
23242;SDS011;11790;49.578;11.214;2022-08-18T16:31:45;9.15;;;4.90;;
23242;SDS011;11790;49.578;11.214;2022-08-18T16:36:45;8.07;;;4.70;;
23242;SDS011;11790;49.578;11.214;2022-08-18T16:41:46;5.90;;;4.90;;
23242;SDS011;11790;49.578;11.214;2022-08-18T16:46:46;5.10;;;4.55;;
23242;SDS011;11790;49.578;11.214;2022-08-18T16:51:46;5.30;;;4.80;;
23242;SDS011;11790;49.578;11.214;2022-08-18T16:56:46;5.78;;;5.15;;
23242;SDS011;11790;49.578;11.214;2022-08-18T17:01:47;9.45;;;4.97;;
23242;SDS011;11790;49.578;11.214;2022-08-18T17:07:06;5.25;;;4.75;;
23242;SDS011;11790;49.578;11.214;2022-08-18T17:12:06;6.63;;;5.17;;
23242;SDS011;11790;49.578;11.214;2022-08-18T17:17:06;5.73;;;5.00;;
23242;SDS011;11790;49.578;11.214;2022-08-18T17:22:07;5.87;;;5.13;;
23242;SDS011;11790;49.578;11.214;2022-08-18T17:32:10;9.77;;;5.20;;
23242;SDS011;11790;49.578;11.214;2022-08-18T17:42:13;5.40;;;4.88;;
23242;SDS011;11790;49.578;11.214;2022-08-18T17:47:27;5.00;;;4.50;;
23242;SDS011;11790;49.578;11.214;2022-08-18T17:52:40;5.90;;;5.25;;
23242;SDS011;11790;49.578;11.214;2022-08-18T18:03:14;12.15;;;5.15;;
23242;SDS011;11790;49.578;11.214;2022-08-18T18:08:14;6.00;;;5.40;;
23242;SDS011;11790;49.578;11.214;2022-08-18T18:13:28;6.72;;;4.80;;
23242;SDS011;11790;49.578;11.214;2022-08-18T18:18:41;6.38;;;5.20;;
23242;SDS011;11790;49.578;11.214;2022-08-18T18:23:47;5.57;;;5.03;;
23242;SDS011;11790;49.578;11.214;2022-08-18T18:28:48;6.77;;;4.80;;
23242;SDS011;11790;49.578;11.214;2022-08-18T18:33:59;5.88;;;5.28;;
23242;SDS011;11790;49.578;11.214;2022-08-18T18:39:34;10.80;;;5.30;;
23242;SDS011;11790;49.578;11.214;2022-08-18T18:44:28;6.35;;;5.68;;
23242;SDS011;11790;49.578;11.214;2022-08-18T18:49:36;5.22;;;4.72;;
23242;SDS011;11790;49.578;11.214;2022-08-18T19:00:06;7.75;;;5.28;;
23242;SDS011;11790;49.578;11.214;2022-08-18T19:06:01;6.40;;;5.63;;
23242;SDS011;11790;49.578;11.214;2022-08-18T19:10:42;6.47;;;5.28;;
23242;SDS011;11790;49.578;11.214;2022-08-18T19:15:44;6.00;;;5.40;;
23242;SDS011;11790;49.578;11.214;2022-08-18T19:20:47;5.93;;;5.32;;
23242;SDS011;11790;49.578;11.214;2022-08-18T19:25:51;7.10;;;5.88;;
23242;SDS011;11790;49.578;11.214;2022-08-18T19:30:53;7.43;;;5.87;;
23242;SDS011;11790;49.578;11.214;2022-08-18T19:46:23;9.10;;;6.13;;
23242;SDS011;11790;49.578;11.214;2022-08-18T19:51:36;9.35;;;6.90;;
23242;SDS011;11790;49.578;11.214;2022-08-18T20:01:52;11.40;;;7.85;;
23242;SDS011;11790;49.578;11.214;2022-08-18T20:22:08;9.32;;;7.00;;
23242;SDS011;11790;49.578;11.214;2022-08-18T20:32:29;8.60;;;7.32;;
23242;SDS011;11790;49.578;11.214;2022-08-18T20:37:30;8.45;;;7.43;;
23242;SDS011;11790;49.578;11.214;2022-08-18T20:57:46;9.57;;;7.47;;
23242;SDS011;11790;49.578;11.214;2022-08-18T21:02:51;9.07;;;7.95;;
23242;SDS011;11790;49.578;11.214;2022-08-18T21:07:56;8.65;;;7.45;;
23242;SDS011;11790;49.578;11.214;2022-08-18T21:12:58;9.80;;;7.78;;
23242;SDS011;11790;49.578;11.214;2022-08-18T21:17:59;9.85;;;7.85;;
23242;SDS011;11790;49.578;11.214;2022-08-18T21:23:05;10.05;;;7.90;;
23242;SDS011;11790;49.578;11.214;2022-08-18T21:28:05;10.52;;;8.13;;
23242;SDS011;11790;49.578;11.214;2022-08-18T21:33:19;10.48;;;8.50;;
23242;SDS011;11790;49.578;11.214;2022-08-18T21:38:24;10.13;;;8.98;;
23242;SDS011;11790;49.578;11.214;2022-08-18T21:48:45;12.65;;;10.38;;
23242;SDS011;11790;49.578;11.214;2022-08-18T21:53:47;13.52;;;11.63;;
23242;SDS011;11790;49.578;11.214;2022-08-18T21:58:48;17.77;;;12.43;;
23242;SDS011;11790;49.578;11.214;2022-08-18T22:08:49;18.15;;;15.43;;
23242;SDS011;11790;49.578;11.214;2022-08-18T22:13:53;25.08;;;16.13;;
23242;SDS011;11790;49.578;11.214;2022-08-18T22:19:07;20.52;;;15.88;;
23242;SDS011;11790;49.578;11.214;2022-08-18T22:24:09;19.45;;;15.70;;
23242;SDS011;11790;49.578;11.214;2022-08-18T22:34:22;20.15;;;16.70;;
23242;SDS011;11790;49.578;11.214;2022-08-18T22:39:38;20.48;;;17.52;;
23242;SDS011;11790;49.578;11.214;2022-08-18T22:44:39;19.02;;;16.25;;
23242;SDS011;11790;49.578;11.214;2022-08-18T22:49:39;27.67;;;18.02;;
23242;SDS011;11790;49.578;11.214;2022-08-18T22:54:40;21.55;;;17.65;;
23242;SDS011;11790;49.578;11.214;2022-08-18T22:59:40;21.73;;;17.52;;
23242;SDS011;11790;49.578;11.214;2022-08-18T23:04:41;22.25;;;16.67;;
23242;SDS011;11790;49.578;11.214;2022-08-18T23:09:41;22.48;;;17.35;;
23242;SDS011;11790;49.578;11.214;2022-08-18T23:14:41;22.63;;;18.77;;
23242;SDS011;11790;49.578;11.214;2022-08-18T23:19:45;19.90;;;17.20;;
23242;SDS011;11790;49.578;11.214;2022-08-18T23:24:46;22.60;;;19.17;;
23242;SDS011;11790;49.578;11.214;2022-08-18T23:29:47;20.88;;;18.52;;
23242;SDS011;11790;49.578;11.214;2022-08-18T23:34:47;23.08;;;19.73;;
23242;SDS011;11790;49.578;11.214;2022-08-18T23:39:48;26.20;;;20.83;;
23242;SDS011;11790;49.578;11.214;2022-08-18T23:44:48;25.92;;;20.45;;
23242;SDS011;11790;49.578;11.214;2022-08-18T23:49:49;23.77;;;20.75;;
23242;SDS011;11790;49.578;11.214;2022-08-18T23:54:50;26.88;;;21.58;;
23242;SDS011;11790;49.578;11.214;2022-08-18T23:59:50;23.02;;;19.67;;
